Fecha, hora, temperatura, viento dirección y velocidad, humedad y presión.

  • 11-04-2019 21:00:00 | 14.60°C | Oeste |18.00 km/h | 82.00% | 0.00 hPa
  • 11-04-2019 20:00:00 | 15.10°C | Oeste |16.00 km/h | 79.00% | 0.00 hPa
  • 11-04-2019 19:00:00 | 15.90°C | Oeste |15.00 km/h | 77.00% | 0.00 hPa
  • 11-04-2019 18:00:00 | 16.40°C | Oeste |15.00 km/h | 75.00% | 0.00 hPa
  • 11-04-2019 17:00:00 | 15.90°C | Oeste |22.00 km/h | 73.00% | 0.00 hPa
  • 11-04-2019 16:00:00 | 16.20°C | Sudoeste |23.00 km/h | 73.00% | 0.00 hPa
  • 11-04-2019 15:00:00 | 15.80°C | Oeste |21.00 km/h | 74.00% | 0.00 hPa
  • 11-04-2019 14:00:00 | 16.00°C | Oeste |18.00 km/h | 77.00% | 0.00 hPa
  • 11-04-2019 13:00:00 | 15.30°C | Oeste |17.00 km/h | 75.00% | 0.00 hPa
  • 11-04-2019 12:00:00 | 14.30°C | Oeste |20.00 km/h | 72.00% | 0.00 hPa
  • 11-04-2019 11:00:00 | 14.30°C | Oeste |15.00 km/h | 75.00% | 0.00 hPa
  • 11-04-2019 10:00:00 | 12.80°C | Oeste |9.00 km/h | 77.00% | 0.00 hPa
  • 11-04-2019 09:00:00 | 11.20°C | Noroeste |11.00 km/h | 83.00% | 0.00 hPa
  • 11-04-2019 08:00:00 | 9.10°C | Noroeste |6.00 km/h | 86.00% | 0.00 hPa
  • 11-04-2019 07:00:00 | 10.90°C | Norte |7.00 km/h | 79.00% | 0.00 hPa
  • 11-04-2019 06:00:00 | 12.20°C | Norte |8.00 km/h | 78.00% | 0.00 hPa
  • 11-04-2019 05:00:00 | 13.00°C | Noroeste |7.00 km/h | 80.00% | 0.00 hPa
  • 11-04-2019 04:00:00 | 13.00°C | Noroeste |8.00 km/h | 83.00% | 0.00 hPa
  • 11-04-2019 03:00:00 | 13.90°C | Norte |12.00 km/h | 80.00% | 0.00 hPa
  • 11-04-2019 02:00:00 | 13.40°C | Norte |11.00 km/h | 86.00% | 0.00 hPa
  • 11-04-2019 01:00:00 | 13.40°C | Norte |5.00 km/h | 88.00% | 0.00 hPa
  • 11-04-2019 00:00:00 | 14.80°C | Norte |7.00 km/h | 89.00% | 0.00 hPa
  • 10-04-2019 23:00:00 | 15.30°C | Oeste |14.00 km/h | 85.00% | 0.00 hPa
  • 10-04-2019 22:00:00 | 15.10°C | Oeste |21.00 km/h | 83.00% | 0.00 hPa
    • diseño web asturias Información sobre el estado de las mareas, altura de la marejada, temperatura del agua y otros datos de Gijón en Asturias.

      Surf Gijón